sensor_id;sensor_type;location;lat;lon;timestamp;P1;durP1;ratioP1;P2;durP2;ratioP2
16824;SDS011;8529;48.108;-1.706;2023-05-19T00:02:14;4.13;;;1.92;;
16824;SDS011;8529;48.108;-1.706;2023-05-19T00:04:42;5.30;;;2.20;;
16824;SDS011;8529;48.108;-1.706;2023-05-19T00:07:09;8.88;;;2.72;;
16824;SDS011;8529;48.108;-1.706;2023-05-19T00:09:37;5.38;;;1.98;;
16824;SDS011;8529;48.108;-1.706;2023-05-19T00:12:04;5.30;;;2.55;;
16824;SDS011;8529;48.108;-1.706;2023-05-19T00:14:32;7.03;;;2.58;;
16824;SDS011;8529;48.108;-1.706;2023-05-19T00:17:01;3.67;;;2.03;;
16824;SDS011;8529;48.108;-1.706;2023-05-19T00:19:29;4.28;;;2.40;;
16824;SDS011;8529;48.108;-1.706;2023-05-19T00:21:57;5.80;;;2.33;;
16824;SDS011;8529;48.108;-1.706;2023-05-19T00:24:24;4.95;;;2.10;;
16824;SDS011;8529;48.108;-1.706;2023-05-19T00:26:51;5.63;;;2.30;;
16824;SDS011;8529;48.108;-1.706;2023-05-19T00:29:18;5.60;;;2.40;;
16824;SDS011;8529;48.108;-1.706;2023-05-19T00:31:44;3.35;;;2.08;;
16824;SDS011;8529;48.108;-1.706;2023-05-19T00:34:13;5.15;;;2.20;;
16824;SDS011;8529;48.108;-1.706;2023-05-19T00:36:40;4.10;;;2.40;;
16824;SDS011;8529;48.108;-1.706;2023-05-19T00:39:06;5.28;;;2.80;;
16824;SDS011;8529;48.108;-1.706;2023-05-19T00:41:33;5.38;;;2.70;;
16824;SDS011;8529;48.108;-1.706;2023-05-19T00:44:01;6.50;;;2.65;;
16824;SDS011;8529;48.108;-1.706;2023-05-19T00:46:27;6.75;;;2.97;;
16824;SDS011;8529;48.108;-1.706;2023-05-19T00:48:54;3.97;;;2.42;;
16824;SDS011;8529;48.108;-1.706;2023-05-19T00:51:23;4.80;;;2.55;;
16824;SDS011;8529;48.108;-1.706;2023-05-19T00:53:52;6.85;;;3.00;;
16824;SDS011;8529;48.108;-1.706;2023-05-19T00:56:19;5.28;;;2.90;;
16824;SDS011;8529;48.108;-1.706;2023-05-19T00:58:46;7.50;;;2.88;;
16824;SDS011;8529;48.108;-1.706;2023-05-19T01:01:15;8.88;;;3.30;;
16824;SDS011;8529;48.108;-1.706;2023-05-19T01:03:45;5.00;;;2.83;;
16824;SDS011;8529;48.108;-1.706;2023-05-19T01:06:13;5.35;;;2.80;;
16824;SDS011;8529;48.108;-1.706;2023-05-19T01:08:44;5.00;;;2.47;;
16824;SDS011;8529;48.108;-1.706;2023-05-19T01:11:11;6.85;;;2.63;;
16824;SDS011;8529;48.108;-1.706;2023-05-19T01:13:38;7.57;;;2.90;;
16824;SDS011;8529;48.108;-1.706;2023-05-19T01:16:06;8.10;;;2.70;;
16824;SDS011;8529;48.108;-1.706;2023-05-19T01:18:39;6.15;;;2.85;;
16824;SDS011;8529;48.108;-1.706;2023-05-19T01:21:19;8.27;;;3.50;;
16824;SDS011;8529;48.108;-1.706;2023-05-19T01:24:21;7.70;;;2.78;;
16824;SDS011;8529;48.108;-1.706;2023-05-19T01:30:12;6.13;;;3.22;;
16824;SDS011;8529;48.108;-1.706;2023-05-19T01:32:50;7.60;;;3.13;;
16824;SDS011;8529;48.108;-1.706;2023-05-19T01:35:19;9.80;;;3.58;;
16824;SDS011;8529;48.108;-1.706;2023-05-19T01:37:48;9.85;;;3.55;;
16824;SDS011;8529;48.108;-1.706;2023-05-19T01:40:18;6.93;;;3.47;;
16824;SDS011;8529;48.108;-1.706;2023-05-19T01:42:46;9.07;;;3.95;;
16824;SDS011;8529;48.108;-1.706;2023-05-19T01:45:17;14.50;;;4.32;;
16824;SDS011;8529;48.108;-1.706;2023-05-19T01:47:51;7.65;;;3.78;;
16824;SDS011;8529;48.108;-1.706;2023-05-19T01:50:20;11.43;;;4.03;;
16824;SDS011;8529;48.108;-1.706;2023-05-19T01:52:47;6.18;;;3.70;;
16824;SDS011;8529;48.108;-1.706;2023-05-19T01:55:14;7.72;;;3.90;;
16824;SDS011;8529;48.108;-1.706;2023-05-19T01:57:42;7.05;;;3.88;;
16824;SDS011;8529;48.108;-1.706;2023-05-19T02:00:20;7.25;;;3.78;;
16824;SDS011;8529;48.108;-1.706;2023-05-19T02:02:57;8.50;;;4.20;;
16824;SDS011;8529;48.108;-1.706;2023-05-19T02:05:35;5.97;;;3.60;;
16824;SDS011;8529;48.108;-1.706;2023-05-19T02:08:09;6.45;;;3.70;;
16824;SDS011;8529;48.108;-1.706;2023-05-19T02:10:44;12.43;;;4.20;;
16824;SDS011;8529;48.108;-1.706;2023-05-19T02:13:15;12.95;;;4.40;;
16824;SDS011;8529;48.108;-1.706;2023-05-19T02:15:46;8.38;;;4.68;;
16824;SDS011;8529;48.108;-1.706;2023-05-19T02:18:14;7.95;;;4.13;;
16824;SDS011;8529;48.108;-1.706;2023-05-19T02:20:44;8.60;;;3.90;;
16824;SDS011;8529;48.108;-1.706;2023-05-19T02:23:11;8.27;;;3.78;;
16824;SDS011;8529;48.108;-1.706;2023-05-19T02:25:38;8.25;;;4.03;;
16824;SDS011;8529;48.108;-1.706;2023-05-19T02:28:05;8.15;;;4.95;;
16824;SDS011;8529;48.108;-1.706;2023-05-19T02:30:32;13.02;;;4.93;;
16824;SDS011;8529;48.108;-1.706;2023-05-19T02:33:00;8.15;;;4.25;;
16824;SDS011;8529;48.108;-1.706;2023-05-19T02:35:27;10.70;;;3.80;;
16824;SDS011;8529;48.108;-1.706;2023-05-19T02:37:54;9.27;;;4.47;;
16824;SDS011;8529;48.108;-1.706;2023-05-19T02:40:21;6.72;;;4.15;;
16824;SDS011;8529;48.108;-1.706;2023-05-19T02:42:48;8.48;;;3.72;;
16824;SDS011;8529;48.108;-1.706;2023-05-19T02:45:15;11.85;;;4.75;;
16824;SDS011;8529;48.108;-1.706;2023-05-19T02:47:42;8.35;;;4.05;;
16824;SDS011;8529;48.108;-1.706;2023-05-19T02:50:10;8.57;;;4.15;;
16824;SDS011;8529;48.108;-1.706;2023-05-19T02:52:37;8.32;;;3.67;;
16824;SDS011;8529;48.108;-1.706;2023-05-19T02:55:04;10.55;;;4.18;;
16824;SDS011;8529;48.108;-1.706;2023-05-19T02:57:33;9.50;;;3.58;;
16824;SDS011;8529;48.108;-1.706;2023-05-19T03:00:00;8.15;;;3.80;;
16824;SDS011;8529;48.108;-1.706;2023-05-19T03:02:29;9.52;;;3.85;;
16824;SDS011;8529;48.108;-1.706;2023-05-19T03:04:58;9.50;;;3.90;;
16824;SDS011;8529;48.108;-1.706;2023-05-19T03:07:28;8.60;;;3.70;;
16824;SDS011;8529;48.108;-1.706;2023-05-19T03:09:55;8.73;;;4.03;;
16824;SDS011;8529;48.108;-1.706;2023-05-19T03:12:22;9.48;;;4.78;;
16824;SDS011;8529;48.108;-1.706;2023-05-19T03:14:49;8.07;;;3.90;;
16824;SDS011;8529;48.108;-1.706;2023-05-19T03:17:16;9.93;;;4.00;;
16824;SDS011;8529;48.108;-1.706;2023-05-19T03:19:43;8.55;;;3.72;;
16824;SDS011;8529;48.108;-1.706;2023-05-19T03:22:09;8.70;;;4.60;;
16824;SDS011;8529;48.108;-1.706;2023-05-19T03:24:38;7.82;;;4.20;;
16824;SDS011;8529;48.108;-1.706;2023-05-19T03:27:05;8.88;;;4.28;;
16824;SDS011;8529;48.108;-1.706;2023-05-19T03:29:32;7.82;;;4.75;;
16824;SDS011;8529;48.108;-1.706;2023-05-19T03:31:58;9.32;;;4.40;;
16824;SDS011;8529;48.108;-1.706;2023-05-19T03:34:25;6.88;;;4.53;;
16824;SDS011;8529;48.108;-1.706;2023-05-19T03:36:52;8.05;;;3.55;;
16824;SDS011;8529;48.108;-1.706;2023-05-19T03:39:19;12.07;;;4.80;;
16824;SDS011;8529;48.108;-1.706;2023-05-19T03:41:47;8.93;;;4.20;;
16824;SDS011;8529;48.108;-1.706;2023-05-19T03:44:15;8.10;;;4.35;;
16824;SDS011;8529;48.108;-1.706;2023-05-19T03:46:42;8.00;;;4.30;;
16824;SDS011;8529;48.108;-1.706;2023-05-19T03:49:09;8.18;;;4.05;;
16824;SDS011;8529;48.108;-1.706;2023-05-19T03:51:35;10.02;;;4.72;;
16824;SDS011;8529;48.108;-1.706;2023-05-19T03:54:02;13.20;;;4.15;;
16824;SDS011;8529;48.108;-1.706;2023-05-19T03:56:30;9.95;;;4.40;;
16824;SDS011;8529;48.108;-1.706;2023-05-19T03:58:58;6.53;;;4.25;;
16824;SDS011;8529;48.108;-1.706;2023-05-19T04:01:25;6.63;;;4.50;;
16824;SDS011;8529;48.108;-1.706;2023-05-19T04:03:52;9.43;;;4.35;;
16824;SDS011;8529;48.108;-1.706;2023-05-19T04:06:19;6.80;;;4.60;;
16824;SDS011;8529;48.108;-1.706;2023-05-19T04:08:46;11.18;;;4.25;;
16824;SDS011;8529;48.108;-1.706;2023-05-19T04:11:12;7.45;;;3.95;;
16824;SDS011;8529;48.108;-1.706;2023-05-19T04:13:39;7.50;;;4.03;;
16824;SDS011;8529;48.108;-1.706;2023-05-19T04:16:08;9.82;;;3.90;;
16824;SDS011;8529;48.108;-1.706;2023-05-19T04:18:35;9.35;;;4.88;;
16824;SDS011;8529;48.108;-1.706;2023-05-19T04:21:02;11.43;;;4.53;;
16824;SDS011;8529;48.108;-1.706;2023-05-19T04:23:29;11.07;;;5.32;;
16824;SDS011;8529;48.108;-1.706;2023-05-19T04:25:56;8.20;;;4.18;;
16824;SDS011;8529;48.108;-1.706;2023-05-19T04:28:24;10.05;;;4.45;;
16824;SDS011;8529;48.108;-1.706;2023-05-19T04:30:51;8.25;;;4.50;;
16824;SDS011;8529;48.108;-1.706;2023-05-19T04:33:20;10.52;;;4.40;;
16824;SDS011;8529;48.108;-1.706;2023-05-19T04:35:47;9.40;;;4.25;;
16824;SDS011;8529;48.108;-1.706;2023-05-19T04:38:14;10.82;;;4.68;;
16824;SDS011;8529;48.108;-1.706;2023-05-19T04:40:43;10.02;;;4.88;;
16824;SDS011;8529;48.108;-1.706;2023-05-19T04:43:09;7.28;;;4.18;;
16824;SDS011;8529;48.108;-1.706;2023-05-19T04:45:36;7.55;;;4.43;;
16824;SDS011;8529;48.108;-1.706;2023-05-19T04:48:06;10.60;;;3.65;;
16824;SDS011;8529;48.108;-1.706;2023-05-19T04:50:34;7.65;;;4.18;;
16824;SDS011;8529;48.108;-1.706;2023-05-19T04:53:02;6.47;;;3.83;;
16824;SDS011;8529;48.108;-1.706;2023-05-19T04:55:29;8.15;;;4.32;;
16824;SDS011;8529;48.108;-1.706;2023-05-19T04:57:56;8.52;;;4.45;;
16824;SDS011;8529;48.108;-1.706;2023-05-19T05:00:23;11.88;;;4.63;;
16824;SDS011;8529;48.108;-1.706;2023-05-19T05:02:50;9.85;;;4.07;;
16824;SDS011;8529;48.108;-1.706;2023-05-19T05:05:17;12.55;;;4.22;;
16824;SDS011;8529;48.108;-1.706;2023-05-19T05:07:46;9.65;;;4.35;;
16824;SDS011;8529;48.108;-1.706;2023-05-19T05:10:13;11.02;;;4.50;;
16824;SDS011;8529;48.108;-1.706;2023-05-19T05:12:40;7.32;;;4.55;;
16824;SDS011;8529;48.108;-1.706;2023-05-19T05:15:08;10.63;;;4.70;;
16824;SDS011;8529;48.108;-1.706;2023-05-19T05:17:36;14.50;;;5.78;;
16824;SDS011;8529;48.108;-1.706;2023-05-19T05:20:04;11.48;;;5.05;;
16824;SDS011;8529;48.108;-1.706;2023-05-19T05:22:32;8.88;;;4.35;;
16824;SDS011;8529;48.108;-1.706;2023-05-19T05:25:01;10.05;;;4.60;;
16824;SDS011;8529;48.108;-1.706;2023-05-19T05:27:29;10.15;;;4.65;;
16824;SDS011;8529;48.108;-1.706;2023-05-19T05:29:56;7.78;;;4.55;;
16824;SDS011;8529;48.108;-1.706;2023-05-19T05:32:23;10.00;;;4.53;;
16824;SDS011;8529;48.108;-1.706;2023-05-19T05:34:50;11.63;;;4.75;;
16824;SDS011;8529;48.108;-1.706;2023-05-19T05:37:17;9.13;;;4.72;;
16824;SDS011;8529;48.108;-1.706;2023-05-19T05:39:44;11.18;;;5.38;;
16824;SDS011;8529;48.108;-1.706;2023-05-19T05:42:12;13.85;;;5.35;;
16824;SDS011;8529;48.108;-1.706;2023-05-19T05:44:40;12.82;;;4.78;;
16824;SDS011;8529;48.108;-1.706;2023-05-19T05:47:07;9.02;;;5.05;;
16824;SDS011;8529;48.108;-1.706;2023-05-19T05:49:36;9.15;;;5.00;;
16824;SDS011;8529;48.108;-1.706;2023-05-19T05:52:04;9.40;;;5.05;;
16824;SDS011;8529;48.108;-1.706;2023-05-19T05:54:33;8.20;;;4.95;;
16824;SDS011;8529;48.108;-1.706;2023-05-19T05:57:00;12.05;;;4.93;;
16824;SDS011;8529;48.108;-1.706;2023-05-19T05:59:29;10.35;;;5.60;;
16824;SDS011;8529;48.108;-1.706;2023-05-19T06:01:57;11.55;;;4.72;;
16824;SDS011;8529;48.108;-1.706;2023-05-19T06:04:24;12.02;;;5.32;;
16824;SDS011;8529;48.108;-1.706;2023-05-19T06:06:51;13.27;;;5.30;;
16824;SDS011;8529;48.108;-1.706;2023-05-19T06:09:21;12.00;;;5.57;;
16824;SDS011;8529;48.108;-1.706;2023-05-19T06:11:47;11.00;;;5.63;;
16824;SDS011;8529;48.108;-1.706;2023-05-19T06:14:14;10.98;;;5.45;;
16824;SDS011;8529;48.108;-1.706;2023-05-19T06:16:43;11.77;;;5.82;;
16824;SDS011;8529;48.108;-1.706;2023-05-19T06:19:12;12.55;;;6.40;;
16824;SDS011;8529;48.108;-1.706;2023-05-19T06:21:38;13.82;;;5.95;;
16824;SDS011;8529;48.108;-1.706;2023-05-19T06:24:06;11.45;;;5.18;;
16824;SDS011;8529;48.108;-1.706;2023-05-19T06:26:33;12.23;;;5.93;;
16824;SDS011;8529;48.108;-1.706;2023-05-19T06:29:00;15.57;;;5.90;;
16824;SDS011;8529;48.108;-1.706;2023-05-19T06:31:27;9.88;;;5.78;;
16824;SDS011;8529;48.108;-1.706;2023-05-19T06:33:56;15.02;;;6.00;;
16824;SDS011;8529;48.108;-1.706;2023-05-19T06:36:23;14.68;;;6.25;;
16824;SDS011;8529;48.108;-1.706;2023-05-19T06:38:50;15.77;;;5.70;;
16824;SDS011;8529;48.108;-1.706;2023-05-19T06:41:17;11.15;;;6.00;;
16824;SDS011;8529;48.108;-1.706;2023-05-19T06:43:45;16.00;;;6.30;;
16824;SDS011;8529;48.108;-1.706;2023-05-19T06:46:12;9.80;;;5.43;;
16824;SDS011;8529;48.108;-1.706;2023-05-19T06:48:41;15.95;;;5.90;;
16824;SDS011;8529;48.108;-1.706;2023-05-19T06:51:09;9.75;;;5.03;;
16824;SDS011;8529;48.108;-1.706;2023-05-19T06:53:37;11.05;;;5.50;;
16824;SDS011;8529;48.108;-1.706;2023-05-19T06:56:04;11.45;;;5.28;;
16824;SDS011;8529;48.108;-1.706;2023-05-19T06:58:32;8.57;;;4.95;;
16824;SDS011;8529;48.108;-1.706;2023-05-19T07:00:58;14.27;;;5.50;;
16824;SDS011;8529;48.108;-1.706;2023-05-19T07:03:25;13.70;;;5.28;;
16824;SDS011;8529;48.108;-1.706;2023-05-19T07:05:52;10.73;;;5.40;;
16824;SDS011;8529;48.108;-1.706;2023-05-19T07:08:20;12.93;;;5.35;;
16824;SDS011;8529;48.108;-1.706;2023-05-19T07:10:47;11.13;;;4.72;;
16824;SDS011;8529;48.108;-1.706;2023-05-19T07:13:14;10.80;;;5.00;;
16824;SDS011;8529;48.108;-1.706;2023-05-19T07:15:41;11.48;;;5.65;;
16824;SDS011;8529;48.108;-1.706;2023-05-19T07:18:08;13.55;;;5.68;;
16824;SDS011;8529;48.108;-1.706;2023-05-19T07:20:35;11.77;;;6.10;;
16824;SDS011;8529;48.108;-1.706;2023-05-19T07:23:02;12.90;;;5.88;;
16824;SDS011;8529;48.108;-1.706;2023-05-19T07:25:30;11.65;;;5.72;;
16824;SDS011;8529;48.108;-1.706;2023-05-19T07:27:57;14.38;;;5.85;;
16824;SDS011;8529;48.108;-1.706;2023-05-19T07:30:25;11.68;;;6.05;;
16824;SDS011;8529;48.108;-1.706;2023-05-19T07:32:52;11.32;;;5.53;;
16824;SDS011;8529;48.108;-1.706;2023-05-19T07:35:19;11.55;;;5.65;;
16824;SDS011;8529;48.108;-1.706;2023-05-19T07:37:47;14.20;;;6.22;;
16824;SDS011;8529;48.108;-1.706;2023-05-19T07:40:14;13.02;;;5.75;;
16824;SDS011;8529;48.108;-1.706;2023-05-19T07:42:42;10.15;;;5.75;;
16824;SDS011;8529;48.108;-1.706;2023-05-19T07:45:09;10.68;;;5.65;;
16824;SDS011;8529;48.108;-1.706;2023-05-19T07:47:36;13.18;;;6.15;;
16824;SDS011;8529;48.108;-1.706;2023-05-19T07:50:03;11.68;;;5.78;;
16824;SDS011;8529;48.108;-1.706;2023-05-19T07:52:31;10.15;;;5.70;;
16824;SDS011;8529;48.108;-1.706;2023-05-19T07:54:58;11.57;;;6.38;;
16824;SDS011;8529;48.108;-1.706;2023-05-19T07:57:25;15.00;;;6.38;;
16824;SDS011;8529;48.108;-1.706;2023-05-19T07:59:53;14.60;;;7.28;;
16824;SDS011;8529;48.108;-1.706;2023-05-19T08:02:20;13.13;;;6.28;;
16824;SDS011;8529;48.108;-1.706;2023-05-19T08:04:47;10.48;;;5.95;;
16824;SDS011;8529;48.108;-1.706;2023-05-19T08:07:14;11.77;;;6.40;;
16824;SDS011;8529;48.108;-1.706;2023-05-19T08:09:41;16.15;;;6.75;;
16824;SDS011;8529;48.108;-1.706;2023-05-19T08:12:08;11.50;;;5.57;;
16824;SDS011;8529;48.108;-1.706;2023-05-19T08:14:34;13.00;;;6.22;;
16824;SDS011;8529;48.108;-1.706;2023-05-19T08:17:03;11.48;;;5.43;;
16824;SDS011;8529;48.108;-1.706;2023-05-19T08:19:30;9.85;;;5.00;;
16824;SDS011;8529;48.108;-1.706;2023-05-19T08:21:57;13.40;;;5.80;;
16824;SDS011;8529;48.108;-1.706;2023-05-19T08:24:25;7.95;;;4.60;;
16824;SDS011;8529;48.108;-1.706;2023-05-19T08:26:53;10.88;;;5.63;;
16824;SDS011;8529;48.108;-1.706;2023-05-19T08:29:20;13.43;;;5.97;;
16824;SDS011;8529;48.108;-1.706;2023-05-19T08:31:47;10.18;;;5.45;;
16824;SDS011;8529;48.108;-1.706;2023-05-19T08:34:15;10.30;;;5.80;;
16824;SDS011;8529;48.108;-1.706;2023-05-19T08:36:42;14.00;;;6.22;;
16824;SDS011;8529;48.108;-1.706;2023-05-19T08:39:10;11.32;;;5.68;;
16824;SDS011;8529;48.108;-1.706;2023-05-19T08:41:37;13.05;;;5.78;;
16824;SDS011;8529;48.108;-1.706;2023-05-19T08:44:05;17.83;;;8.90;;
16824;SDS011;8529;48.108;-1.706;2023-05-19T08:46:32;11.80;;;5.20;;
16824;SDS011;8529;48.108;-1.706;2023-05-19T08:49:01;9.70;;;5.00;;
16824;SDS011;8529;48.108;-1.706;2023-05-19T08:51:38;12.27;;;5.55;;
16824;SDS011;8529;48.108;-1.706;2023-05-19T08:54:13;10.07;;;5.50;;
16824;SDS011;8529;48.108;-1.706;2023-05-19T08:56:42;9.68;;;5.15;;
16824;SDS011;8529;48.108;-1.706;2023-05-19T08:59:10;13.13;;;5.03;;
16824;SDS011;8529;48.108;-1.706;2023-05-19T09:01:38;9.88;;;5.25;;
16824;SDS011;8529;48.108;-1.706;2023-05-19T09:04:07;11.88;;;4.88;;
16824;SDS011;8529;48.108;-1.706;2023-05-19T09:06:34;13.95;;;5.03;;
16824;SDS011;8529;48.108;-1.706;2023-05-19T09:09:04;9.15;;;4.82;;
16824;SDS011;8529;48.108;-1.706;2023-05-19T09:11:32;9.40;;;4.60;;
16824;SDS011;8529;48.108;-1.706;2023-05-19T09:13:59;10.80;;;5.82;;
16824;SDS011;8529;48.108;-1.706;2023-05-19T09:16:26;8.05;;;4.63;;
16824;SDS011;8529;48.108;-1.706;2023-05-19T09:18:55;10.35;;;4.90;;
16824;SDS011;8529;48.108;-1.706;2023-05-19T09:21:28;10.13;;;4.82;;
16824;SDS011;8529;48.108;-1.706;2023-05-19T09:24:02;11.80;;;4.57;;
16824;SDS011;8529;48.108;-1.706;2023-05-19T09:26:34;7.15;;;4.57;;
16824;SDS011;8529;48.108;-1.706;2023-05-19T09:29:09;9.88;;;4.90;;
16824;SDS011;8529;48.108;-1.706;2023-05-19T09:31:36;9.60;;;4.50;;
16824;SDS011;8529;48.108;-1.706;2023-05-19T09:34:03;6.05;;;4.18;;
16824;SDS011;8529;48.108;-1.706;2023-05-19T09:36:37;7.70;;;4.32;;
16824;SDS011;8529;48.108;-1.706;2023-05-19T09:39:12;7.93;;;4.70;;
16824;SDS011;8529;48.108;-1.706;2023-05-19T09:41:39;9.38;;;4.68;;
16824;SDS011;8529;48.108;-1.706;2023-05-19T09:44:07;9.60;;;4.40;;
16824;SDS011;8529;48.108;-1.706;2023-05-19T09:46:42;8.80;;;4.93;;
16824;SDS011;8529;48.108;-1.706;2023-05-19T09:49:17;7.40;;;3.45;;
16824;SDS011;8529;48.108;-1.706;2023-05-19T09:51:45;7.35;;;4.32;;
16824;SDS011;8529;48.108;-1.706;2023-05-19T09:54:15;9.70;;;5.20;;
16824;SDS011;8529;48.108;-1.706;2023-05-19T09:56:42;8.05;;;4.20;;
16824;SDS011;8529;48.108;-1.706;2023-05-19T09:59:09;10.10;;;4.70;;
16824;SDS011;8529;48.108;-1.706;2023-05-19T10:01:37;6.95;;;4.28;;
16824;SDS011;8529;48.108;-1.706;2023-05-19T10:04:05;9.02;;;4.47;;
16824;SDS011;8529;48.108;-1.706;2023-05-19T10:06:32;14.23;;;4.70;;
16824;SDS011;8529;48.108;-1.706;2023-05-19T10:09:01;5.90;;;3.97;;
16824;SDS011;8529;48.108;-1.706;2023-05-19T10:11:30;9.00;;;3.92;;
16824;SDS011;8529;48.108;-1.706;2023-05-19T10:13:57;5.25;;;3.50;;
16824;SDS011;8529;48.108;-1.706;2023-05-19T10:16:24;7.78;;;3.60;;
16824;SDS011;8529;48.108;-1.706;2023-05-19T10:18:52;8.60;;;4.38;;
16824;SDS011;8529;48.108;-1.706;2023-05-19T10:21:22;8.73;;;4.03;;
16824;SDS011;8529;48.108;-1.706;2023-05-19T10:23:49;6.97;;;3.88;;
16824;SDS011;8529;48.108;-1.706;2023-05-19T10:26:16;7.20;;;3.95;;
16824;SDS011;8529;48.108;-1.706;2023-05-19T10:28:45;8.88;;;3.95;;
16824;SDS011;8529;48.108;-1.706;2023-05-19T10:31:14;6.00;;;3.67;;
16824;SDS011;8529;48.108;-1.706;2023-05-19T10:33:58;6.15;;;3.38;;
16824;SDS011;8529;48.108;-1.706;2023-05-19T10:36:43;7.40;;;3.83;;
16824;SDS011;8529;48.108;-1.706;2023-05-19T10:39:14;7.45;;;4.10;;
16824;SDS011;8529;48.108;-1.706;2023-05-19T10:41:45;6.93;;;4.22;;
16824;SDS011;8529;48.108;-1.706;2023-05-19T10:44:34;6.63;;;3.90;;
16824;SDS011;8529;48.108;-1.706;2023-05-19T10:47:10;7.43;;;3.55;;
16824;SDS011;8529;48.108;-1.706;2023-05-19T10:49:37;8.05;;;3.42;;
16824;SDS011;8529;48.108;-1.706;2023-05-19T10:52:17;7.00;;;3.95;;
16824;SDS011;8529;48.108;-1.706;2023-05-19T10:54:46;4.68;;;3.08;;
16824;SDS011;8529;48.108;-1.706;2023-05-19T10:57:13;5.93;;;3.60;;
16824;SDS011;8529;48.108;-1.706;2023-05-19T10:59:43;4.65;;;2.80;;
16824;SDS011;8529;48.108;-1.706;2023-05-19T11:02:10;7.47;;;3.50;;
16824;SDS011;8529;48.108;-1.706;2023-05-19T11:05:08;7.45;;;3.60;;
16824;SDS011;8529;48.108;-1.706;2023-05-19T11:07:37;8.05;;;3.53;;
16824;SDS011;8529;48.108;-1.706;2023-05-19T11:10:07;8.77;;;3.67;;
16824;SDS011;8529;48.108;-1.706;2023-05-19T11:12:38;7.50;;;3.70;;
16824;SDS011;8529;48.108;-1.706;2023-05-19T11:15:10;6.63;;;3.45;;
16824;SDS011;8529;48.108;-1.706;2023-05-19T11:17:38;6.15;;;3.30;;
16824;SDS011;8529;48.108;-1.706;2023-05-19T11:20:06;7.65;;;3.65;;
16824;SDS011;8529;48.108;-1.706;2023-05-19T11:22:36;7.18;;;3.67;;
16824;SDS011;8529;48.108;-1.706;2023-05-19T11:25:03;6.15;;;3.13;;
16824;SDS011;8529;48.108;-1.706;2023-05-19T11:27:32;7.82;;;3.70;;
16824;SDS011;8529;48.108;-1.706;2023-05-19T11:30:07;5.25;;;3.08;;
16824;SDS011;8529;48.108;-1.706;2023-05-19T11:32:39;5.85;;;3.28;;
16824;SDS011;8529;48.108;-1.706;2023-05-19T11:35:08;5.35;;;3.35;;
16824;SDS011;8529;48.108;-1.706;2023-05-19T11:37:35;6.45;;;3.72;;
16824;SDS011;8529;48.108;-1.706;2023-05-19T11:40:04;6.88;;;2.97;;
16824;SDS011;8529;48.108;-1.706;2023-05-19T11:42:33;4.47;;;3.17;;
16824;SDS011;8529;48.108;-1.706;2023-05-19T11:45:00;9.10;;;3.58;;
16824;SDS011;8529;48.108;-1.706;2023-05-19T11:47:29;7.25;;;3.55;;
16824;SDS011;8529;48.108;-1.706;2023-05-19T11:49:57;7.28;;;4.15;;
16824;SDS011;8529;48.108;-1.706;2023-05-19T11:52:25;7.15;;;3.70;;
16824;SDS011;8529;48.108;-1.706;2023-05-19T11:54:52;7.18;;;3.95;;
16824;SDS011;8529;48.108;-1.706;2023-05-19T11:57:20;5.95;;;3.35;;
16824;SDS011;8529;48.108;-1.706;2023-05-19T11:59:47;7.90;;;4.07;;
16824;SDS011;8529;48.108;-1.706;2023-05-19T12:02:16;7.47;;;4.00;;
16824;SDS011;8529;48.108;-1.706;2023-05-19T12:04:45;5.25;;;3.88;;
16824;SDS011;8529;48.108;-1.706;2023-05-19T12:07:14;7.38;;;3.47;;
16824;SDS011;8529;48.108;-1.706;2023-05-19T12:09:42;8.35;;;3.63;;
16824;SDS011;8529;48.108;-1.706;2023-05-19T12:12:11;6.38;;;4.00;;
16824;SDS011;8529;48.108;-1.706;2023-05-19T12:14:39;4.40;;;3.50;;
16824;SDS011;8529;48.108;-1.706;2023-05-19T12:17:09;7.55;;;3.40;;
16824;SDS011;8529;48.108;-1.706;2023-05-19T12:19:37;5.78;;;3.47;;
16824;SDS011;8529;48.108;-1.706;2023-05-19T12:22:06;6.68;;;3.33;;
16824;SDS011;8529;48.108;-1.706;2023-05-19T12:24:33;7.22;;;4.07;;
16824;SDS011;8529;48.108;-1.706;2023-05-19T12:27:05;8.63;;;3.47;;
16824;SDS011;8529;48.108;-1.706;2023-05-19T12:29:36;6.88;;;4.00;;
16824;SDS011;8529;48.108;-1.706;2023-05-19T12:32:04;7.10;;;3.65;;
16824;SDS011;8529;48.108;-1.706;2023-05-19T12:34:33;6.35;;;4.20;;
16824;SDS011;8529;48.108;-1.706;2023-05-19T12:37:01;6.28;;;3.60;;
16824;SDS011;8529;48.108;-1.706;2023-05-19T12:39:30;6.45;;;3.63;;
16824;SDS011;8529;48.108;-1.706;2023-05-19T12:42:00;6.63;;;3.65;;
16824;SDS011;8529;48.108;-1.706;2023-05-19T12:44:28;6.38;;;4.10;;
16824;SDS011;8529;48.108;-1.706;2023-05-19T12:46:55;8.65;;;4.35;;
16824;SDS011;8529;48.108;-1.706;2023-05-19T12:49:23;6.07;;;4.35;;
16824;SDS011;8529;48.108;-1.706;2023-05-19T12:51:50;7.53;;;4.18;;
16824;SDS011;8529;48.108;-1.706;2023-05-19T12:54:18;6.82;;;4.53;;
16824;SDS011;8529;48.108;-1.706;2023-05-19T12:56:50;5.70;;;3.92;;
16824;SDS011;8529;48.108;-1.706;2023-05-19T12:59:21;6.07;;;3.80;;
16824;SDS011;8529;48.108;-1.706;2023-05-19T13:01:55;6.57;;;3.65;;
16824;SDS011;8529;48.108;-1.706;2023-05-19T13:04:23;6.70;;;4.00;;
16824;SDS011;8529;48.108;-1.706;2023-05-19T13:06:50;9.13;;;4.68;;
16824;SDS011;8529;48.108;-1.706;2023-05-19T13:09:17;10.25;;;4.55;;
16824;SDS011;8529;48.108;-1.706;2023-05-19T13:11:45;7.05;;;4.68;;
16824;SDS011;8529;48.108;-1.706;2023-05-19T13:14:16;7.22;;;4.32;;
16824;SDS011;8529;48.108;-1.706;2023-05-19T13:16:43;5.88;;;3.78;;
16824;SDS011;8529;48.108;-1.706;2023-05-19T13:19:11;7.22;;;4.40;;
16824;SDS011;8529;48.108;-1.706;2023-05-19T13:21:38;8.90;;;5.75;;
16824;SDS011;8529;48.108;-1.706;2023-05-19T13:24:06;7.10;;;4.47;;
16824;SDS011;8529;48.108;-1.706;2023-05-19T13:26:33;8.25;;;4.03;;
16824;SDS011;8529;48.108;-1.706;2023-05-19T13:29:00;7.78;;;4.32;;
16824;SDS011;8529;48.108;-1.706;2023-05-19T13:31:29;9.38;;;5.00;;
16824;SDS011;8529;48.108;-1.706;2023-05-19T13:33:55;9.38;;;4.72;;
16824;SDS011;8529;48.108;-1.706;2023-05-19T13:36:23;7.60;;;4.32;;
16824;SDS011;8529;48.108;-1.706;2023-05-19T13:38:51;5.53;;;4.13;;
16824;SDS011;8529;48.108;-1.706;2023-05-19T13:41:21;8.43;;;4.22;;
16824;SDS011;8529;48.108;-1.706;2023-05-19T13:43:50;11.20;;;4.90;;
16824;SDS011;8529;48.108;-1.706;2023-05-19T13:46:17;7.97;;;5.10;;
16824;SDS011;8529;48.108;-1.706;2023-05-19T13:48:45;7.57;;;4.07;;
16824;SDS011;8529;48.108;-1.706;2023-05-19T13:51:12;12.00;;;4.60;;
16824;SDS011;8529;48.108;-1.706;2023-05-19T13:53:39;10.02;;;4.93;;
16824;SDS011;8529;48.108;-1.706;2023-05-19T13:56:06;8.05;;;4.40;;
16824;SDS011;8529;48.108;-1.706;2023-05-19T13:58:33;9.88;;;4.43;;
16824;SDS011;8529;48.108;-1.706;2023-05-19T14:01:00;7.60;;;4.80;;
16824;SDS011;8529;48.108;-1.706;2023-05-19T14:03:27;10.57;;;4.93;;
16824;SDS011;8529;48.108;-1.706;2023-05-19T14:05:55;6.78;;;4.70;;
16824;SDS011;8529;48.108;-1.706;2023-05-19T14:08:22;9.32;;;4.75;;
16824;SDS011;8529;48.108;-1.706;2023-05-19T14:10:49;10.82;;;5.18;;
16824;SDS011;8529;48.108;-1.706;2023-05-19T14:13:16;8.23;;;4.55;;
16824;SDS011;8529;48.108;-1.706;2023-05-19T14:15:43;8.23;;;4.75;;
16824;SDS011;8529;48.108;-1.706;2023-05-19T14:18:10;8.80;;;4.47;;
16824;SDS011;8529;48.108;-1.706;2023-05-19T14:20:37;10.48;;;5.00;;
16824;SDS011;8529;48.108;-1.706;2023-05-19T14:23:05;9.25;;;5.07;;
16824;SDS011;8529;48.108;-1.706;2023-05-19T14:25:32;9.48;;;5.45;;
16824;SDS011;8529;48.108;-1.706;2023-05-19T14:27:59;11.00;;;5.70;;
16824;SDS011;8529;48.108;-1.706;2023-05-19T14:30:26;11.93;;;5.50;;
16824;SDS011;8529;48.108;-1.706;2023-05-19T14:32:53;10.95;;;6.18;;
16824;SDS011;8529;48.108;-1.706;2023-05-19T14:35:20;11.85;;;5.72;;
16824;SDS011;8529;48.108;-1.706;2023-05-19T14:37:47;9.75;;;5.20;;
16824;SDS011;8529;48.108;-1.706;2023-05-19T14:40:15;10.45;;;5.65;;
16824;SDS011;8529;48.108;-1.706;2023-05-19T14:42:42;10.80;;;6.10;;
16824;SDS011;8529;48.108;-1.706;2023-05-19T14:45:10;11.27;;;5.20;;
16824;SDS011;8529;48.108;-1.706;2023-05-19T14:47:37;9.07;;;5.80;;
16824;SDS011;8529;48.108;-1.706;2023-05-19T14:50:04;9.10;;;6.13;;
16824;SDS011;8529;48.108;-1.706;2023-05-19T14:52:32;10.80;;;6.53;;
16824;SDS011;8529;48.108;-1.706;2023-05-19T14:54:58;9.55;;;5.68;;